Airfield :
LOGIN :

Register | Disclaimer

   EN    FR    IT 

 










Legend :    VFR   Marginal VFR   IFR   Intensive IFR   Very Intensive IFR
Visi :
Ceiling :
>= 8 km
>= 3000ft
5 to 8 km
1000 to 3000 ft
1500m to 5 km
500 to 1000 ft
800 to 1500m
200 to 500 ft
< 800m
< 200 ft
Symbols :   Thunderstorms  Fog  Heavy snow  Heavy precipitations  Wind > 20 kt
SIGMETs :     Misc.  Thunderstorms  Icing  Turbulence  Mountain Waves  Volcanic Ashes






- Airport Elevation : 37 ft


EHVL - Vlieland Heliport

CURRENT METAR :
  • 191525Z AUTO 26020KT 9999 FEW018 SCT022 BKN270 07/03 Q1017 WHT

EXPIRED METARs :
  • 191518Z AUTO 26021KT 9999 SCT022 BKN270 06/03 Q1016 WHT
  • 191508Z AUTO 27022KT 9999 SCT018 BKN021 BKN025 06/03 Q1017 WHT
  • 191455Z AUTO 26023KT 9999 FEW018 SCT021 BKN026 06/03 Q1016 WHT
  • 191443Z AUTO 26023KT 9000 HZ SCT016 BKN022 BKN026 07/03 Q1016 WHT
  • 191434Z AUTO 27023KT 9000 HZ FEW018 SCT025 BKN029 07/03 Q1016 BLU
  • 191425Z AUTO 26022KT 9999 FEW017 SCT020 BKN026 07/03 Q1016 WHT
  • 191355Z AUTO 27021KT 9000 HZ SCT019 BKN023 OVC029 07/03 Q1016 WHT
  • 191325Z AUTO 27024KT 9000 HZ FEW018 SCT025 BKN029 07/03 Q1016 BLU
  • 191310Z AUTO 27024KT 9000 HZ SCT016 BKN021 OVC025 07/03 Q1016 WHT
  • 191306Z AUTO 27024KT 9999 FEW018 SCT021 BKN026 07/03 Q1016 WHT
  • 191247Z AUTO 27026KT 9000 HZ FEW019 BKN024 OVC027 07/03 Q1016 WHT
  • 191233Z AUTO 27025KT 9999 FEW019 OVC025 07/03 Q1016 BLU

Expired Forecast.



MET'MAP, your aeronautical weather chart ! - Copyright ORBIFLY December 2007 - Disclaimer

ORBIFLY MET'MAP TEAM :

Programming & Development : Alexandra Zaïnal
Concept & original design : Baudouin d'Aumeries
Assistance for programming : Marc-Olivier Méhu
Technical & hardware support : Manuel Goepfert

Contact : metmap@orbifly.com




SOURCES & CREDITS :

   NOAA